createdAt,value
2022-12-16T00:01:20.511Z,98698.41
2022-12-16T00:03:49.793Z,98708.03
2022-12-16T00:06:20.570Z,98702.81
2022-12-16T00:08:47.907Z,98700.19
2022-12-16T00:11:15.099Z,98702.81
2022-12-16T00:13:42.276Z,98701.16
2022-12-16T00:16:12.849Z,98708.03
2022-12-16T00:18:40.528Z,98705.56
2022-12-16T00:21:08.624Z,98709.94
2022-12-16T00:23:36.509Z,98715.16
2022-12-16T00:26:03.999Z,98715.16
2022-12-16T00:28:31.208Z,98723.00
2022-12-16T00:30:58.348Z,98730.00
2022-12-16T00:33:27.290Z,98734.41
2022-12-16T00:35:55.756Z,98729.19
2022-12-16T00:38:25.529Z,98728.38
2022-12-16T00:40:52.601Z,98736.06
2022-12-16T00:43:20.245Z,98742.91
2022-12-16T00:45:51.843Z,98734.25
2022-12-16T00:48:23.718Z,98742.91
2022-12-16T00:50:53.150Z,98745.38
2022-12-16T00:53:24.026Z,98749.66
2022-12-16T00:56:11.961Z,98753.06
2022-12-16T00:58:38.875Z,98754.75
2022-12-16T01:01:06.321Z,98756.41
2022-12-16T01:03:34.494Z,98754.63
2022-12-16T01:06:01.891Z,98765.75
2022-12-16T01:08:28.802Z,98776.19
2022-12-16T01:10:57.459Z,98764.91
2022-12-16T01:13:27.025Z,98780.44
2022-12-16T01:15:54.033Z,98773.44
2022-12-16T01:18:21.591Z,98775.94
2022-12-16T01:20:48.555Z,98779.38
2022-12-16T01:23:15.476Z,98782.78
2022-12-16T01:25:42.393Z,98780.19
2022-12-16T01:28:09.519Z,98795.72
2022-12-16T01:30:36.460Z,98786.91
2022-12-16T01:33:03.479Z,98780.72
2022-12-16T01:35:52.629Z,98786.09
2022-12-16T01:38:17.281Z,98782.50
2022-12-16T01:40:44.954Z,98789.53
2022-12-16T01:43:13.957Z,98788.56
2022-12-16T01:45:41.120Z,98781.69
2022-12-16T01:48:30.522Z,98784.31
2022-12-16T01:51:18.659Z,98785.13
2022-12-16T01:53:46.973Z,98779.91
2022-12-16T01:56:17.360Z,98777.28
2022-12-16T01:58:45.294Z,98776.47
2022-12-16T02:01:14.706Z,98774.81
2022-12-16T02:03:42.972Z,98774.81
2022-12-16T02:06:10.252Z,98775.66
2022-12-16T02:08:37.380Z,98776.47
2022-12-16T02:11:41.219Z,98774.13
2022-12-16T02:14:54.344Z,98775.09
2022-12-16T02:17:47.169Z,98778.94
2022-12-16T02:20:41.855Z,98773.13
2022-12-16T02:23:38.425Z,98770.66
2022-12-16T02:26:31.273Z,98783.03
2022-12-16T02:29:35.215Z,98777.13
2022-12-16T02:32:30.205Z,98790.28
2022-12-16T02:35:22.578Z,98787.81
2022-12-16T02:38:22.680Z,98794.00
2022-12-16T02:41:01.116Z,98795.78
2022-12-16T02:43:43.832Z,98809.66
2022-12-16T02:46:11.181Z,98803.75
2022-12-16T02:48:38.112Z,98809.94
2022-12-16T02:51:05.088Z,98810.88
2022-12-16T02:53:36.841Z,98817.88
2022-12-16T02:56:38.614Z,98815.41
2022-12-16T02:59:24.828Z,98812.94
2022-12-16T03:02:09.485Z,98814.00
2022-12-16T03:04:49.489Z,98819.38
2022-12-16T03:07:19.937Z,98815.25
2022-12-16T03:09:49.141Z,98814.56
2022-12-16T03:12:19.358Z,98809.59
2022-12-16T03:14:52.675Z,98815.91
2022-12-16T03:17:23.378Z,98808.34
2022-12-16T03:20:02.967Z,98812.19
2022-12-16T03:22:35.340Z,98816.00
2022-12-16T03:25:02.720Z,98816.38
2022-12-16T03:27:34.002Z,98810.75
2022-12-16T03:30:19.651Z,98815.38
2022-12-16T03:33:11.485Z,98827.00
2022-12-16T03:35:50.624Z,98826.47
2022-12-16T03:38:21.647Z,98827.78
2022-12-16T03:40:50.037Z,98842.03
2022-12-16T03:43:17.960Z,98838.19
2022-12-16T03:45:46.362Z,98843.75
2022-12-16T03:48:14.286Z,98844.97
2022-12-16T03:50:41.353Z,98851.50
2022-12-16T03:53:08.327Z,98847.50
2022-12-16T03:55:35.799Z,98857.47
2022-12-16T03:58:02.743Z,98858.66
2022-12-16T04:00:29.917Z,98868.66
2022-12-16T04:02:57.015Z,98867.25
2022-12-16T04:05:24.161Z,98867.75
2022-12-16T04:07:51.158Z,98868.13
2022-12-16T04:10:38.165Z,98870.16
2022-12-16T04:13:23.449Z,98869.69
2022-12-16T04:16:09.177Z,98871.81
2022-12-16T04:18:56.828Z,98873.03
2022-12-16T04:21:42.677Z,98882.03
2022-12-16T04:24:20.397Z,98880.63
2022-12-16T04:27:13.403Z,98889.63
2022-12-16T04:30:01.664Z,98894.38
2022-12-16T04:32:49.367Z,98899.13
2022-12-16T04:35:34.854Z,98896.88
2022-12-16T04:38:20.608Z,98897.22
2022-12-16T04:41:05.766Z,98896.75
2022-12-16T04:43:51.040Z,98895.34
2022-12-16T04:46:36.992Z,98901.84
2022-12-16T04:49:22.271Z,98913.44
2022-12-16T04:52:07.507Z,98914.66
2022-12-16T04:54:52.654Z,98921.84
2022-12-16T04:57:38.017Z,98926.56
2022-12-16T05:00:25.162Z,98923.50
2022-12-16T05:03:10.808Z,98932.47
2022-12-16T05:05:56.173Z,98937.09
2022-12-16T05:08:41.370Z,98936.63
2022-12-16T05:11:27.197Z,98936.94
2022-12-16T05:14:12.365Z,98942.50
2022-12-16T05:16:57.781Z,98938.47
2022-12-16T05:19:43.159Z,98938.81
2022-12-16T05:22:28.985Z,98951.22
2022-12-16T05:25:14.358Z,98953.34
2022-12-16T05:27:59.699Z,98958.88
2022-12-16T05:30:45.512Z,98962.63
2022-12-16T05:33:31.328Z,98963.81
2022-12-16T05:36:16.783Z,98976.31
2022-12-16T05:39:01.983Z,98980.09
2022-12-16T05:41:47.155Z,98977.00
2022-12-16T05:44:32.474Z,98979.78
2022-12-16T05:47:17.893Z,98988.81
2022-12-16T05:50:03.278Z,98993.50
2022-12-16T05:52:49.104Z,98997.16
2022-12-16T05:55:35.105Z,98997.47
2022-12-16T05:58:20.389Z,99003.81
2022-12-16T06:01:06.857Z,99000.63
2022-12-16T06:03:53.207Z,99009.56
2022-12-16T06:06:38.650Z,99017.59
2022-12-16T06:09:24.395Z,99023.09
2022-12-16T06:12:10.263Z,99038.91
2022-12-16T06:14:55.548Z,99049.50
2022-12-16T06:17:40.691Z,99049.72
2022-12-16T06:20:26.835Z,99043.06
2022-12-16T06:23:13.409Z,99052.00
2022-12-16T06:25:59.572Z,99053.28
2022-12-16T06:28:46.155Z,99059.50
2022-12-16T06:31:32.084Z,99060.75
2022-12-16T06:34:17.385Z,99063.56
2022-12-16T06:37:03.217Z,99070.72
2022-12-16T06:39:52.918Z,99071.88
2022-12-16T06:42:38.833Z,99076.53
2022-12-16T06:45:27.913Z,99083.59
2022-12-16T06:48:16.702Z,99092.63
2022-12-16T06:51:01.919Z,99090.22
2022-12-16T06:53:47.311Z,99100.00
2022-12-16T06:56:32.941Z,99106.41
2022-12-16T06:59:18.196Z,99110.97
2022-12-16T07:02:04.006Z,99112.00
2022-12-16T07:04:49.382Z,99118.44
2022-12-16T07:07:34.671Z,99123.81
2022-12-16T07:10:20.376Z,99132.63
2022-12-16T07:13:05.768Z,99132.94
2022-12-16T07:15:51.100Z,99143.50
2022-12-16T07:18:36.259Z,99146.31
2022-12-16T07:21:21.550Z,99149.06
2022-12-16T07:24:06.986Z,99158.00
2022-12-16T07:26:52.677Z,99159.84
2022-12-16T07:29:38.361Z,99162.66
2022-12-16T07:32:24.346Z,99161.91
2022-12-16T07:35:09.616Z,99163.75
2022-12-16T07:38:05.430Z,99164.78
2022-12-16T07:40:50.748Z,99163.25
2022-12-16T07:43:36.578Z,99179.81
2022-12-16T07:46:22.251Z,99186.75
2022-12-16T07:49:07.405Z,99183.44
2022-12-16T07:51:52.677Z,99188.72
2022-12-16T07:54:37.899Z,99192.13
2022-12-16T07:57:23.644Z,99206.03
2022-12-16T08:00:08.812Z,99212.94
2022-12-16T08:03:13.728Z,99228.50
2022-12-16T08:05:59.238Z,99223.41
2022-12-16T08:08:44.553Z,99227.66
2022-12-16T08:11:30.261Z,99235.38
2022-12-16T08:14:15.533Z,99234.53
2022-12-16T08:17:00.826Z,99240.44
2022-12-16T08:19:46.071Z,99238.47
2022-12-16T08:22:31.300Z,99243.38
2022-12-16T08:25:16.506Z,99243.94
2022-12-16T08:28:02.878Z,99240.97
2022-12-16T08:30:48.172Z,99252.78
2022-12-16T08:33:33.912Z,99255.09
2022-12-16T08:36:19.442Z,99257.41
2022-12-16T08:39:04.671Z,99267.41
2022-12-16T08:41:50.479Z,99281.66
2022-12-16T08:44:36.259Z,99283.75
2022-12-16T08:47:22.069Z,99280.56
2022-12-16T08:50:07.942Z,99268.75
2022-12-16T08:52:53.193Z,99274.19
2022-12-16T08:55:39.073Z,99283.88
2022-12-16T08:58:24.347Z,99283.06
2022-12-16T09:01:09.654Z,99295.25
2022-12-16T09:03:56.086Z,99294.53
2022-12-16T09:07:02.033Z,99295.50
2022-12-16T09:09:47.727Z,99304.16
2022-12-16T09:12:33.103Z,99314.81
2022-12-16T09:15:18.262Z,99315.00
2022-12-16T09:18:03.641Z,99323.03
2022-12-16T09:20:48.924Z,99329.97
2022-12-16T09:23:34.721Z,99337.16
2022-12-16T09:26:20.566Z,99335.56
2022-12-16T09:29:05.811Z,99337.69
2022-12-16T09:31:50.954Z,99345.78
2022-12-16T09:34:36.175Z,99351.38
2022-12-16T09:37:22.099Z,99345.75
2022-12-16T09:40:07.557Z,99347.94
2022-12-16T09:43:29.304Z,99348.41
2022-12-16T09:46:36.163Z,99345.38
2022-12-16T09:49:54.324Z,99344.94
2022-12-16T09:52:41.409Z,99355.03
2022-12-16T09:55:47.481Z,99352.84
2022-12-16T09:58:35.860Z,99353.13
2022-12-16T10:01:21.255Z,99359.66
2022-12-16T10:04:07.317Z,99357.44
2022-12-16T10:07:06.382Z,99363.75
2022-12-16T10:10:22.257Z,99360.50
2022-12-16T10:13:40.749Z,99362.31
2022-12-16T10:16:47.206Z,99354.06
2022-12-16T10:19:32.499Z,99357.88
2022-12-16T10:22:48.960Z,99364.28
2022-12-16T10:26:00.973Z,99370.69
2022-12-16T10:29:16.916Z,99374.44
2022-12-16T10:32:02.807Z,99368.63
2022-12-16T10:34:52.908Z,99359.41
2022-12-16T10:37:53.949Z,99362.25
2022-12-16T10:40:44.828Z,99352.31
2022-12-16T10:43:48.487Z,99358.00
2022-12-16T10:46:42.319Z,99358.59
2022-12-16T10:49:34.477Z,99362.53
2022-12-16T10:52:20.563Z,99369.78
2022-12-16T10:55:53.574Z,99370.63
2022-12-16T10:59:22.852Z,99372.16
2022-12-16T11:02:39.051Z,99368.59
2022-12-16T11:05:51.665Z,99369.41
2022-12-16T11:08:55.659Z,99379.97
2022-12-16T11:11:47.759Z,99394.09
2022-12-16T11:15:05.810Z,99384.59
2022-12-16T11:17:53.064Z,99390.50
2022-12-16T11:20:42.445Z,99389.63
2022-12-16T11:23:43.856Z,99386.84
2022-12-16T11:26:37.936Z,99391.09
2022-12-16T11:29:36.083Z,99385.94
2022-12-16T11:32:44.447Z,99379.13
2022-12-16T11:35:38.447Z,99387.19
2022-12-16T11:38:33.914Z,99388.34
2022-12-16T11:41:19.879Z,99404.22
2022-12-16T11:44:10.367Z,99397.78
2022-12-16T11:46:56.055Z,99407.03
2022-12-16T11:49:50.916Z,99405.00
2022-12-16T11:52:40.003Z,99406.41
2022-12-16T11:58:54.169Z,99411.00
2022-12-16T12:02:07.124Z,99418.34
2022-12-16T12:04:52.691Z,99418.06
2022-12-16T12:08:12.497Z,99419.22
2022-12-16T12:11:22.187Z,99421.59
2022-12-16T12:15:05.126Z,99417.75
2022-12-16T12:18:10.676Z,99416.53
2022-12-16T12:21:16.757Z,99432.94
2022-12-16T12:24:26.800Z,99434.34
2022-12-16T12:27:31.089Z,99433.13
2022-12-16T12:30:31.445Z,99441.56
2022-12-16T12:33:29.059Z,99442.25
2022-12-16T12:36:48.893Z,99449.88
2022-12-16T12:40:02.000Z,99452.91
2022-12-16T12:42:56.375Z,99455.41
2022-12-16T12:46:14.581Z,99461.06
2022-12-16T12:49:39.996Z,99468.00
2022-12-16T12:53:02.693Z,99467.72
2022-12-16T12:56:20.426Z,99472.69
2022-12-16T12:59:08.908Z,99471.88
2022-12-16T13:01:59.223Z,99466.38
2022-12-16T13:04:47.436Z,99461.97
2022-12-16T13:07:33.221Z,99470.53
2022-12-16T13:10:43.663Z,99466.94
2022-12-16T13:13:51.374Z,99470.38
2022-12-16T13:17:20.313Z,99479.09
2022-12-16T13:20:14.081Z,99468.63
2022-12-16T13:23:01.613Z,99473.72
2022-12-16T13:26:08.977Z,99477.03
2022-12-16T13:29:00.787Z,99475.25
2022-12-16T13:31:48.700Z,99473.59
2022-12-16T13:34:34.416Z,99484.22
2022-12-16T13:37:28.430Z,99491.25
2022-12-16T13:40:25.867Z,99490.28
2022-12-16T13:43:13.769Z,99492.91
2022-12-16T13:46:16.009Z,99502.41
2022-12-16T13:49:02.021Z,99501.44
2022-12-16T13:51:56.349Z,99519.81
2022-12-16T13:55:08.137Z,99514.56
2022-12-16T13:58:00.866Z,99512.75
2022-12-16T14:00:47.765Z,99521.47
2022-12-16T14:03:59.657Z,99518.84
2022-12-16T14:06:48.606Z,99533.72
2022-12-16T14:09:56.362Z,99543.38
2022-12-16T14:13:25.710Z,99552.22
2022-12-16T14:16:40.409Z,99554.00
2022-12-16T14:19:59.576Z,99545.56
2022-12-16T14:23:47.319Z,99559.50
2022-12-16T14:26:33.768Z,99568.47
2022-12-16T14:29:21.984Z,99566.81
2022-12-16T14:32:07.337Z,99573.97
2022-12-16T14:34:55.398Z,99577.66
2022-12-16T14:37:56.099Z,99584.69
2022-12-16T14:40:49.748Z,99579.72
2022-12-16T14:43:44.105Z,99590.44
2022-12-16T14:46:49.117Z,99589.75
2022-12-16T14:49:48.853Z,99597.59
2022-12-16T14:52:42.075Z,99597.84
2022-12-16T14:55:37.827Z,99610.25
2022-12-16T14:58:31.678Z,99605.13
2022-12-16T15:01:30.244Z,99615.75
2022-12-16T15:04:16.541Z,99614.09
2022-12-16T15:07:10.204Z,99624.81
2022-12-16T15:10:08.357Z,99626.59
2022-12-16T15:13:03.013Z,99622.56
2022-12-16T15:16:09.231Z,99634.13
2022-12-16T15:19:03.332Z,99630.94
2022-12-16T15:21:53.105Z,99631.03
2022-12-16T15:24:43.179Z,99638.19
2022-12-16T15:27:39.127Z,99641.91
2022-12-16T15:31:07.533Z,99647.25
2022-12-16T15:33:56.912Z,99655.38
2022-12-16T15:36:55.100Z,99664.31
2022-12-16T15:39:43.332Z,99670.59
2022-12-16T15:42:49.361Z,99673.47
2022-12-16T15:45:49.540Z,99676.31
2022-12-16T15:48:49.406Z,99677.41
2022-12-16T15:52:09.012Z,99684.66
2022-12-16T15:55:12.631Z,99683.13
2022-12-16T15:57:58.603Z,99687.75
2022-12-16T16:00:49.189Z,99698.50
2022-12-16T16:03:43.768Z,99701.47
2022-12-16T16:06:45.926Z,99709.44
2022-12-16T16:09:47.967Z,99704.47
2022-12-16T16:12:38.037Z,99708.25
2022-12-16T16:15:26.862Z,99711.00
2022-12-16T16:18:23.501Z,99718.13
2022-12-16T16:21:10.788Z,99720.03
2022-12-16T16:23:56.959Z,99724.69
2022-12-16T16:26:47.562Z,99723.84
2022-12-16T16:29:33.940Z,99731.09
2022-12-16T16:32:21.101Z,99728.72
2022-12-16T16:35:07.321Z,99738.47
2022-12-16T16:37:53.394Z,99736.09
2022-12-16T16:40:59.479Z,99735.47
2022-12-16T16:43:46.805Z,99747.97
2022-12-16T16:46:39.285Z,99745.56
2022-12-16T16:49:38.135Z,99745.81
2022-12-16T16:52:30.935Z,99752.09
2022-12-16T16:55:17.640Z,99755.78
2022-12-16T16:58:04.558Z,99763.88
2022-12-16T17:00:50.950Z,99762.31
2022-12-16T17:03:38.389Z,99766.00
2022-12-16T17:06:25.095Z,99771.44
2022-12-16T17:09:10.570Z,99769.91
2022-12-16T17:11:57.063Z,99781.44
2022-12-16T17:14:42.413Z,99783.44
2022-12-16T17:17:28.690Z,99779.28
2022-12-16T17:20:14.461Z,99789.94
2022-12-16T17:23:00.500Z,99786.75
2022-12-16T17:25:46.352Z,99790.50
2022-12-16T17:28:31.685Z,99788.97
2022-12-16T17:31:17.601Z,99803.19
2022-12-16T17:34:03.501Z,99807.84
2022-12-16T17:36:49.218Z,99807.22
2022-12-16T17:39:34.515Z,99803.97
2022-12-16T17:42:19.918Z,99803.38
2022-12-16T17:45:05.872Z,99809.75
2022-12-16T17:47:51.186Z,99806.44
2022-12-16T17:50:36.407Z,99815.41
2022-12-16T17:53:21.785Z,99815.66
2022-12-16T17:56:07.035Z,99818.50
2022-12-16T17:58:56.003Z,99822.16
2022-12-16T18:01:42.785Z,99827.59
2022-12-16T18:04:28.701Z,99825.06
2022-12-16T18:07:14.655Z,99828.88
2022-12-16T18:10:00.403Z,99838.59
2022-12-16T18:12:46.311Z,99839.75
2022-12-16T18:15:31.734Z,99846.88
2022-12-16T18:18:17.008Z,99848.00
2022-12-16T18:21:02.346Z,99850.84
2022-12-16T18:23:49.314Z,99854.38
2022-12-16T18:26:35.592Z,99854.59
2022-12-16T18:29:21.654Z,99852.94
2022-12-16T18:32:08.127Z,99863.59
2022-12-16T18:34:53.783Z,99857.66
2022-12-16T18:37:39.690Z,99866.63
2022-12-16T18:40:26.193Z,99873.72
2022-12-16T18:43:11.404Z,99880.13
2022-12-16T18:45:56.770Z,99881.38
2022-12-16T18:48:42.228Z,99878.97
2022-12-16T18:51:27.466Z,99888.88
2022-12-16T18:54:13.300Z,99891.81
2022-12-16T18:56:58.693Z,99895.66
2022-12-16T18:59:44.069Z,99899.53
2022-12-16T19:02:29.480Z,99897.31
2022-12-16T19:05:14.900Z,99907.22
2022-12-16T19:08:00.035Z,99905.78
2022-12-16T19:10:45.360Z,99913.06
2022-12-16T19:13:34.889Z,99915.13
2022-12-16T19:16:20.782Z,99924.28
2022-12-16T19:19:06.583Z,99930.75
2022-12-16T19:21:56.534Z,99927.69
2022-12-16T19:24:43.649Z,99932.41
2022-12-16T19:27:28.904Z,99940.59
2022-12-16T19:30:14.256Z,99941.00
2022-12-16T19:32:59.419Z,99945.66
2022-12-16T19:35:44.873Z,99947.72
2022-12-16T19:38:32.858Z,99952.47
2022-12-16T19:41:18.713Z,99960.59
2022-12-16T19:44:06.533Z,99958.38
2022-12-16T19:49:58.095Z,99966.97
2022-12-16T19:52:43.310Z,99956.91
2022-12-16T19:55:29.267Z,99958.13
2022-12-16T19:58:14.604Z,99971.41
2022-12-16T20:01:00.454Z,99975.16
2022-12-16T20:03:47.017Z,99983.34
2022-12-16T20:06:33.141Z,99983.50
2022-12-16T20:09:18.891Z,99991.63
2022-12-16T20:12:04.182Z,99994.50
2022-12-16T20:14:51.626Z,99995.59
2022-12-16T20:17:37.071Z,100004.53
2022-12-16T20:20:22.896Z,100008.22
2022-12-16T20:23:08.120Z,100006.75
2022-12-16T20:25:56.409Z,100010.47
2022-12-16T20:28:43.844Z,100009.78
2022-12-16T20:31:29.194Z,100003.09
2022-12-16T20:34:15.691Z,100003.28
2022-12-16T20:37:01.435Z,100009.50
2022-12-16T20:39:56.566Z,100020.09
2022-12-16T20:42:44.086Z,100026.41
2022-12-16T20:45:30.415Z,100027.50
2022-12-16T20:48:15.855Z,100032.13
2022-12-16T20:51:01.259Z,100023.66
2022-12-16T20:53:47.300Z,100031.72
2022-12-16T20:56:32.634Z,100039.63
2022-12-16T20:59:17.990Z,100040.63
2022-12-16T21:02:25.863Z,100043.34
2022-12-16T21:05:11.627Z,100053.72
2022-12-16T21:07:57.005Z,100053.78
2022-12-16T21:10:42.993Z,100059.09
2022-12-16T21:13:34.679Z,100063.63
2022-12-16T21:14:28.424Z,99963.88
2022-12-16T21:16:24.104Z,100070.66
2022-12-16T21:19:10.412Z,100073.44
2022-12-16T21:25:01.885Z,100081.59
2022-12-16T21:27:47.204Z,100093.06
2022-12-16T21:30:43.202Z,100075.88
2022-12-16T21:33:36.973Z,100086.53
2022-12-16T21:36:23.291Z,100098.78
2022-12-16T21:39:08.707Z,100104.13
2022-12-16T21:41:54.530Z,100106.81
2022-12-16T21:44:42.024Z,100109.63
2022-12-16T21:47:27.898Z,100121.00
2022-12-16T21:50:13.109Z,100125.47
2022-12-16T21:53:02.296Z,100126.38
2022-12-16T21:55:47.832Z,100129.13
2022-12-16T21:58:32.900Z,100139.63
2022-12-16T22:01:18.111Z,100147.50
2022-12-16T22:04:03.428Z,100142.38
2022-12-16T22:06:49.229Z,100145.81
2022-12-16T22:09:35.717Z,100142.31
2022-12-16T22:12:21.462Z,100157.88
2022-12-16T22:15:06.810Z,100158.63
2022-12-16T22:17:58.080Z,100166.44
2022-12-16T22:20:44.609Z,100172.47
2022-12-16T22:23:29.929Z,100175.91
2022-12-16T22:26:17.298Z,100176.84
2022-12-16T22:29:02.455Z,100185.41
2022-12-16T22:31:47.693Z,100189.69
2022-12-16T22:34:33.630Z,100188.00
2022-12-16T22:37:18.868Z,100195.81
2022-12-16T22:40:04.730Z,100199.28
2022-12-16T22:42:50.580Z,100206.34
2022-12-16T22:45:36.090Z,100203.00
2022-12-16T22:48:21.838Z,100207.44
2022-12-16T22:51:07.177Z,100210.94
2022-12-16T22:53:52.428Z,100216.28
2022-12-16T22:56:38.788Z,100209.34
2022-12-16T22:59:24.596Z,100220.56
2022-12-16T23:02:09.980Z,100221.50
2022-12-16T23:04:55.389Z,100220.66
2022-12-16T23:07:43.338Z,100225.09
2022-12-16T23:10:28.666Z,100229.44
2022-12-16T23:13:13.924Z,100227.84
2022-12-16T23:15:59.361Z,100231.44
2022-12-16T23:18:44.647Z,100236.78
2022-12-16T23:21:36.048Z,100236.94
2022-12-16T23:24:21.943Z,100237.09
2022-12-16T23:27:07.432Z,100232.06
2022-12-16T23:29:52.833Z,100237.38
2022-12-16T23:32:31.348Z,100081.41
2022-12-16T23:32:43.566Z,100232.28
2022-12-16T23:35:29.407Z,100241.06
2022-12-16T23:38:23.937Z,100235.19
2022-12-16T23:41:17.578Z,100241.47
2022-12-16T23:44:03.863Z,100241.69
2022-12-16T23:46:49.743Z,100241.91
2022-12-16T23:49:35.091Z,100246.41
2022-12-16T23:52:20.318Z,100248.31
2022-12-16T23:55:05.587Z,100270.06
2022-12-16T23:57:50.894Z,100271.13
